createdAt,value
2023-04-30T00:00:47.301Z,1006.58
2023-04-30T00:01:47.303Z,1006.64
2023-04-30T00:02:47.371Z,1006.64
2023-04-30T00:03:47.375Z,1006.62
2023-04-30T00:04:47.280Z,1006.63
2023-04-30T00:05:47.236Z,1006.60
2023-04-30T00:06:47.362Z,1006.58
2023-04-30T00:07:47.217Z,1006.60
2023-04-30T00:08:47.204Z,1006.58
2023-04-30T00:09:47.194Z,1006.60
2023-04-30T00:10:47.172Z,1006.56
2023-04-30T00:11:47.162Z,1006.60
2023-04-30T00:12:47.134Z,1006.59
2023-04-30T00:13:47.128Z,1006.59
2023-04-30T00:14:47.123Z,1006.56
2023-04-30T00:15:47.114Z,1006.60
2023-04-30T00:16:47.212Z,1006.61
2023-04-30T00:17:47.084Z,1006.62
2023-04-30T00:18:47.053Z,1006.58
2023-04-30T00:19:47.081Z,1006.57
2023-04-30T00:20:47.029Z,1006.58
2023-04-30T00:21:47.142Z,1006.56
2023-04-30T00:22:47.027Z,1006.56
2023-04-30T00:23:46.991Z,1006.56
2023-04-30T00:24:46.995Z,1006.55
2023-04-30T00:25:46.968Z,1006.55
2023-04-30T00:26:46.957Z,1006.53
2023-04-30T00:27:46.932Z,1006.58
2023-04-30T00:28:46.955Z,1006.56
2023-04-30T00:29:46.916Z,1006.56
2023-04-30T00:30:46.922Z,1006.56
2023-04-30T00:31:46.942Z,1006.53
2023-04-30T00:32:46.897Z,1006.54
2023-04-30T00:33:46.857Z,1006.54
2023-04-30T00:34:46.874Z,1006.54
2023-04-30T00:35:46.835Z,1006.57
2023-04-30T00:36:46.812Z,1006.56
2023-04-30T00:37:46.814Z,1006.58
2023-04-30T00:38:46.796Z,1006.57
2023-04-30T00:39:46.788Z,1006.58
2023-04-30T00:40:46.772Z,1006.58
2023-04-30T00:41:46.754Z,1006.58
2023-04-30T00:42:46.755Z,1006.59
2023-04-30T00:43:46.729Z,1006.63
2023-04-30T00:44:46.731Z,1006.64
2023-04-30T00:45:46.761Z,1006.59
2023-04-30T00:46:46.693Z,1006.55
2023-04-30T00:47:46.718Z,1006.60
2023-04-30T00:48:46.671Z,1006.59
2023-04-30T00:49:46.673Z,1006.63
2023-04-30T00:50:46.637Z,1006.64
2023-04-30T00:51:46.615Z,1006.61
2023-04-30T00:52:46.615Z,1006.63
2023-04-30T00:53:46.594Z,1006.60
2023-04-30T00:54:46.618Z,1006.61
2023-04-30T00:55:46.546Z,1006.60
2023-04-30T00:56:46.576Z,1006.62
2023-04-30T00:57:46.573Z,1006.63
2023-04-30T00:58:46.540Z,1006.63
2023-04-30T00:59:46.536Z,1006.63
2023-04-30T01:00:46.516Z,1006.65
2023-04-30T01:01:46.547Z,1006.66
2023-04-30T01:02:46.577Z,1006.65
2023-04-30T01:03:46.538Z,1006.67
2023-04-30T01:04:46.470Z,1006.69
2023-04-30T01:05:46.454Z,1006.66
2023-04-30T01:06:46.428Z,1006.67
2023-04-30T01:07:46.430Z,1006.67
2023-04-30T01:08:46.418Z,1006.68
2023-04-30T01:09:46.401Z,1006.65
2023-04-30T01:10:46.385Z,1006.68
2023-04-30T01:11:46.348Z,1006.68
2023-04-30T01:12:46.353Z,1006.70
2023-04-30T01:13:46.327Z,1006.67
2023-04-30T01:14:46.345Z,1006.68
2023-04-30T01:15:46.325Z,1006.68
2023-04-30T01:16:46.298Z,1006.71
2023-04-30T01:17:46.308Z,1006.66
2023-04-30T01:18:46.355Z,1006.69
2023-04-30T01:19:46.263Z,1006.65
2023-04-30T01:20:46.262Z,1006.69
2023-04-30T01:21:46.229Z,1006.71
2023-04-30T01:22:46.213Z,1006.73
2023-04-30T01:23:46.185Z,1006.73
2023-04-30T01:24:46.211Z,1006.70
2023-04-30T01:25:46.170Z,1006.70
2023-04-30T01:26:46.165Z,1006.73
2023-04-30T01:27:46.141Z,1006.73
2023-04-30T01:28:46.140Z,1006.71
2023-04-30T01:29:46.138Z,1006.70
2023-04-30T01:30:46.125Z,1006.73
2023-04-30T01:31:46.195Z,1006.70
2023-04-30T01:32:46.144Z,1006.68
2023-04-30T01:33:46.075Z,1006.70
2023-04-30T01:34:46.068Z,1006.71
2023-04-30T01:35:46.066Z,1006.67
2023-04-30T01:36:46.034Z,1006.68
2023-04-30T01:37:46.009Z,1006.71
2023-04-30T01:38:46.014Z,1006.67
2023-04-30T01:39:45.982Z,1006.66
2023-04-30T01:40:45.987Z,1006.63
2023-04-30T01:41:46.217Z,1006.67
2023-04-30T01:42:45.961Z,1006.66
2023-04-30T01:43:45.939Z,1006.70
2023-04-30T01:44:45.952Z,1006.64
2023-04-30T01:45:45.976Z,1006.61
2023-04-30T01:46:46.088Z,1006.64
2023-04-30T01:47:45.916Z,1006.65
2023-04-30T01:48:45.865Z,1006.65
2023-04-30T01:49:45.869Z,1006.66
2023-04-30T01:50:45.849Z,1006.65
2023-04-30T01:51:45.847Z,1006.66
2023-04-30T01:52:45.839Z,1006.66
2023-04-30T01:53:45.789Z,1006.70
2023-04-30T01:54:45.814Z,1006.69
2023-04-30T01:55:45.789Z,1006.67
2023-04-30T01:56:45.781Z,1006.71
2023-04-30T01:57:45.756Z,1006.71
2023-04-30T01:58:45.741Z,1006.70
2023-04-30T01:59:45.764Z,1006.73
2023-04-30T02:00:45.714Z,1006.71
2023-04-30T02:01:45.719Z,1006.72
2023-04-30T02:02:45.800Z,1006.72
2023-04-30T02:03:45.773Z,1006.79
2023-04-30T02:04:45.691Z,1006.76
2023-04-30T02:05:45.650Z,1006.80
2023-04-30T02:06:45.661Z,1006.83
2023-04-30T02:07:45.625Z,1006.85
2023-04-30T02:08:45.618Z,1006.85
2023-04-30T02:09:45.604Z,1006.86
2023-04-30T02:10:45.626Z,1006.89
2023-04-30T02:11:45.586Z,1006.87
2023-04-30T02:12:45.566Z,1006.88
2023-04-30T02:13:45.537Z,1006.85
2023-04-30T02:14:45.519Z,1006.87
2023-04-30T02:15:45.557Z,1006.87
2023-04-30T02:16:45.511Z,1006.86
2023-04-30T02:17:45.531Z,1006.89
2023-04-30T02:18:45.479Z,1006.92
2023-04-30T02:19:45.456Z,1006.95
2023-04-30T02:20:45.475Z,1006.94
2023-04-30T02:21:45.435Z,1006.95
2023-04-30T02:22:45.437Z,1006.93
2023-04-30T02:23:45.425Z,1006.95
2023-04-30T02:24:45.399Z,1006.97
2023-04-30T02:25:45.399Z,1006.96
2023-04-30T02:26:45.372Z,1006.96
2023-04-30T02:27:45.352Z,1007.00
2023-04-30T02:28:45.333Z,1007.00
2023-04-30T02:29:45.333Z,1007.01
2023-04-30T02:30:45.331Z,1007.06
2023-04-30T02:31:45.311Z,1007.04
2023-04-30T02:32:45.339Z,1007.06
2023-04-30T02:33:45.266Z,1007.04
2023-04-30T02:34:45.267Z,1006.99
2023-04-30T02:35:45.268Z,1006.99
2023-04-30T02:36:45.236Z,1007.03
2023-04-30T02:37:45.214Z,1007.02
2023-04-30T02:38:45.206Z,1007.02
2023-04-30T02:39:45.184Z,1007.00
2023-04-30T02:40:45.203Z,1007.03
2023-04-30T02:41:45.153Z,1007.02
2023-04-30T02:42:45.155Z,1007.01
2023-04-30T02:43:45.132Z,1007.04
2023-04-30T02:44:45.153Z,1006.98
2023-04-30T02:45:45.191Z,1006.98
2023-04-30T02:46:45.095Z,1006.96
2023-04-30T02:47:45.094Z,1006.97
2023-04-30T02:48:45.063Z,1006.99
2023-04-30T02:49:45.054Z,1007.02
2023-04-30T02:50:45.057Z,1007.02
2023-04-30T02:51:45.034Z,1006.99
2023-04-30T02:52:45.009Z,1007.00
2023-04-30T02:53:45.015Z,1007.01
2023-04-30T02:54:44.980Z,1006.96
2023-04-30T02:55:44.986Z,1006.94
2023-04-30T02:56:44.956Z,1006.96
2023-04-30T02:57:44.954Z,1006.92
2023-04-30T02:58:44.955Z,1006.98
2023-04-30T02:59:44.925Z,1006.96
2023-04-30T03:00:44.900Z,1006.97
2023-04-30T03:01:44.920Z,1007.00
2023-04-30T03:02:44.977Z,1007.02
2023-04-30T03:03:44.932Z,1006.98
2023-04-30T03:04:44.854Z,1006.98
2023-04-30T03:05:44.859Z,1007.05
2023-04-30T03:06:45.000Z,1007.06
2023-04-30T03:07:44.812Z,1007.05
2023-04-30T03:08:44.792Z,1007.00
2023-04-30T03:09:44.792Z,1007.04
2023-04-30T03:10:44.798Z,1007.03
2023-04-30T03:11:44.790Z,1007.00
2023-04-30T03:12:44.743Z,1007.03
2023-04-30T03:13:44.728Z,1007.05
2023-04-30T03:14:44.712Z,1007.02
2023-04-30T03:15:44.740Z,1007.03
2023-04-30T03:16:44.743Z,1007.03
2023-04-30T03:17:46.165Z,1007.05
2023-04-30T03:18:44.653Z,1007.03
2023-04-30T03:19:44.650Z,1007.05
2023-04-30T03:20:44.669Z,1007.04
2023-04-30T03:21:44.651Z,1007.05
2023-04-30T03:22:44.606Z,1007.06
2023-04-30T03:23:44.595Z,1007.04
2023-04-30T03:24:44.580Z,1007.03
2023-04-30T03:25:44.604Z,1007.03
2023-04-30T03:26:44.559Z,1007.01
2023-04-30T03:27:44.560Z,1007.01
2023-04-30T03:28:44.529Z,1007.03
2023-04-30T03:29:44.524Z,1007.05
2023-04-30T03:30:44.518Z,1007.05
2023-04-30T03:31:44.524Z,1007.05
2023-04-30T03:32:44.497Z,1007.05
2023-04-30T03:33:44.512Z,1007.05
2023-04-30T03:34:44.458Z,1007.07
2023-04-30T03:35:44.478Z,1007.09
2023-04-30T03:36:44.425Z,1007.12
2023-04-30T03:37:44.416Z,1007.05
2023-04-30T03:38:44.402Z,1007.08
2023-04-30T03:39:44.379Z,1007.07
2023-04-30T03:40:44.383Z,1007.07
2023-04-30T03:41:44.360Z,1007.08
2023-04-30T03:42:44.340Z,1007.11
2023-04-30T03:43:44.330Z,1007.06
2023-04-30T03:44:44.309Z,1007.09
2023-04-30T03:45:44.353Z,1007.05
2023-04-30T03:46:44.401Z,1007.05
2023-04-30T03:47:44.423Z,1006.98
2023-04-30T03:48:44.322Z,1007.02
2023-04-30T03:49:44.346Z,1006.96
2023-04-30T03:50:44.341Z,1007.00
2023-04-30T03:51:44.227Z,1007.02
2023-04-30T03:52:44.245Z,1007.02
2023-04-30T03:53:44.194Z,1007.00
2023-04-30T03:54:44.210Z,1006.99
2023-04-30T03:55:44.258Z,1007.05
2023-04-30T03:56:44.194Z,1007.05
2023-04-30T03:57:44.207Z,1007.05
2023-04-30T03:58:44.130Z,1007.06
2023-04-30T03:59:44.246Z,1007.05
2023-04-30T04:00:44.125Z,1007.08
2023-04-30T04:01:44.141Z,1007.04
2023-04-30T04:02:44.275Z,1007.07
2023-04-30T04:03:44.098Z,1007.05
2023-04-30T04:04:44.107Z,1007.05
2023-04-30T04:05:44.081Z,1007.03
2023-04-30T04:06:44.113Z,1007.04
2023-04-30T04:07:44.066Z,1007.06
2023-04-30T04:08:44.022Z,1007.09
2023-04-30T04:09:44.217Z,1007.09
2023-04-30T04:10:44.020Z,1007.10
2023-04-30T04:11:44.041Z,1007.16
2023-04-30T04:12:43.986Z,1007.16
2023-04-30T04:13:43.955Z,1007.14
2023-04-30T04:14:44.084Z,1007.15
2023-04-30T04:15:44.026Z,1007.16
2023-04-30T04:16:44.017Z,1007.14
2023-04-30T04:17:44.017Z,1007.15
2023-04-30T04:18:43.956Z,1007.13
2023-04-30T04:19:43.848Z,1007.16
2023-04-30T04:20:43.919Z,1007.18
2023-04-30T04:21:43.853Z,1007.17
2023-04-30T04:22:43.833Z,1007.13
2023-04-30T04:23:43.856Z,1007.14
2023-04-30T04:24:43.830Z,1007.17
2023-04-30T04:25:43.786Z,1007.16
2023-04-30T04:26:44.242Z,1007.18
2023-04-30T04:27:43.744Z,1007.19
2023-04-30T04:28:43.725Z,1007.18
2023-04-30T04:29:43.718Z,1007.21
2023-04-30T04:30:43.708Z,1007.23
2023-04-30T04:31:43.804Z,1007.25
2023-04-30T04:32:43.706Z,1007.24
2023-04-30T04:33:43.668Z,1007.23
2023-04-30T04:34:43.717Z,1007.24
2023-04-30T04:35:43.686Z,1007.26
2023-04-30T04:36:43.671Z,1007.26
2023-04-30T04:37:50.805Z,1007.28
2023-04-30T04:38:43.595Z,1007.26
2023-04-30T04:39:43.590Z,1007.23
2023-04-30T04:40:43.568Z,1007.24
2023-04-30T04:41:43.582Z,1007.21
2023-04-30T04:42:43.553Z,1007.26
2023-04-30T04:43:43.536Z,1007.24
2023-04-30T04:44:43.558Z,1007.24
2023-04-30T04:45:43.504Z,1007.25
2023-04-30T04:46:43.547Z,1007.26
2023-04-30T04:47:43.552Z,1007.29
2023-04-30T04:48:43.460Z,1007.25
2023-04-30T04:49:43.453Z,1007.25
2023-04-30T04:50:43.430Z,1007.25
2023-04-30T04:51:43.565Z,1007.25
2023-04-30T04:52:43.416Z,1007.25
2023-04-30T04:53:43.387Z,1007.27
2023-04-30T04:54:43.408Z,1007.22
2023-04-30T04:55:43.376Z,1007.27
2023-04-30T04:56:43.376Z,1007.29
2023-04-30T04:57:43.361Z,1007.24
2023-04-30T04:58:43.391Z,1007.28
2023-04-30T04:59:43.324Z,1007.28
2023-04-30T05:00:43.310Z,1007.29
2023-04-30T05:01:43.419Z,1007.32
2023-04-30T05:02:43.367Z,1007.38
2023-04-30T05:03:43.340Z,1007.33
2023-04-30T05:04:43.249Z,1007.33
2023-04-30T05:05:43.246Z,1007.38
2023-04-30T05:06:43.370Z,1007.38
2023-04-30T05:07:43.229Z,1007.40
2023-04-30T05:08:43.226Z,1007.36
2023-04-30T05:09:43.221Z,1007.37
2023-04-30T05:10:43.172Z,1007.40
2023-04-30T05:11:43.173Z,1007.39
2023-04-30T05:12:43.169Z,1007.43
2023-04-30T05:13:43.134Z,1007.42
2023-04-30T05:14:43.204Z,1007.44
2023-04-30T05:15:43.115Z,1007.44
2023-04-30T05:16:43.201Z,1007.47
2023-04-30T05:17:43.126Z,1007.48
2023-04-30T05:18:43.070Z,1007.45
2023-04-30T05:19:43.060Z,1007.46
2023-04-30T05:20:43.042Z,1007.42
2023-04-30T05:21:43.072Z,1007.43
2023-04-30T05:22:43.007Z,1007.43
2023-04-30T05:23:43.005Z,1007.41
2023-04-30T05:24:42.988Z,1007.38
2023-04-30T05:25:42.979Z,1007.38
2023-04-30T05:26:42.978Z,1007.41
2023-04-30T05:27:42.958Z,1007.39
2023-04-30T05:28:42.952Z,1007.42
2023-04-30T05:29:42.930Z,1007.43
2023-04-30T05:30:42.932Z,1007.41
2023-04-30T05:31:42.941Z,1007.45
2023-04-30T05:32:42.919Z,1007.47
2023-04-30T05:33:42.869Z,1007.44
2023-04-30T05:34:42.860Z,1007.49
2023-04-30T05:35:42.842Z,1007.47
2023-04-30T05:36:44.291Z,1007.44
2023-04-30T05:37:42.810Z,1007.49
2023-04-30T05:38:42.800Z,1007.46
2023-04-30T05:39:42.786Z,1007.46
2023-04-30T05:40:42.781Z,1007.50
2023-04-30T05:41:42.776Z,1007.48
2023-04-30T05:42:42.737Z,1007.50
2023-04-30T05:43:42.730Z,1007.50
2023-04-30T05:44:42.715Z,1007.49
2023-04-30T05:45:42.712Z,1007.50
2023-04-30T05:46:42.711Z,1007.49
2023-04-30T05:47:42.747Z,1007.47
2023-04-30T05:48:42.661Z,1007.47
2023-04-30T05:49:42.652Z,1007.46
2023-04-30T05:50:42.640Z,1007.47
2023-04-30T05:51:42.626Z,1007.50
2023-04-30T05:52:42.730Z,1007.49
2023-04-30T05:53:42.599Z,1007.51
2023-04-30T05:54:42.578Z,1007.51
2023-04-30T05:55:42.559Z,1007.56
2023-04-30T05:56:42.558Z,1007.52
2023-04-30T05:57:42.571Z,1007.51
2023-04-30T05:58:42.508Z,1007.52
2023-04-30T05:59:42.519Z,1007.54
2023-04-30T06:00:42.503Z,1007.53
2023-04-30T06:01:42.537Z,1007.54
2023-04-30T06:02:42.525Z,1007.55
2023-04-30T06:03:42.477Z,1007.57
2023-04-30T06:04:42.542Z,1007.56
2023-04-30T06:05:42.467Z,1007.55
2023-04-30T06:06:42.523Z,1007.53
2023-04-30T06:07:42.420Z,1007.52
2023-04-30T06:08:42.435Z,1007.56
2023-04-30T06:09:42.391Z,1007.54
2023-04-30T06:10:42.361Z,1007.55
2023-04-30T06:11:42.706Z,1007.54
2023-04-30T06:12:42.350Z,1007.55
2023-04-30T06:13:42.317Z,1007.56
2023-04-30T06:14:42.313Z,1007.55
2023-04-30T06:15:42.310Z,1007.54
2023-04-30T06:16:42.327Z,1007.54
2023-04-30T06:17:42.369Z,1007.56
2023-04-30T06:18:42.253Z,1007.54
2023-04-30T06:19:42.244Z,1007.55
2023-04-30T06:20:42.231Z,1007.55
2023-04-30T06:21:42.237Z,1007.55
2023-04-30T06:22:42.402Z,1007.56
2023-04-30T06:23:42.194Z,1007.54
2023-04-30T06:24:42.180Z,1007.59
2023-04-30T06:25:42.164Z,1007.59
2023-04-30T06:26:42.151Z,1007.55
2023-04-30T06:27:42.159Z,1007.50
2023-04-30T06:28:42.125Z,1007.49
2023-04-30T06:29:42.109Z,1007.46
2023-04-30T06:30:42.106Z,1007.51
2023-04-30T06:31:42.225Z,1007.48
2023-04-30T06:32:42.152Z,1007.48
2023-04-30T06:33:42.063Z,1007.49
2023-04-30T06:34:42.039Z,1007.50
2023-04-30T06:35:42.043Z,1007.44
2023-04-30T06:36:42.027Z,1007.43
2023-04-30T06:37:42.030Z,1007.45
2023-04-30T06:38:41.991Z,1007.44
2023-04-30T06:39:41.977Z,1007.41
2023-04-30T06:40:41.975Z,1007.37
2023-04-30T06:41:41.953Z,1007.33
2023-04-30T06:42:41.953Z,1007.34
2023-04-30T06:43:41.934Z,1007.34
2023-04-30T06:44:42.038Z,1007.35
2023-04-30T06:45:41.914Z,1007.34
2023-04-30T06:46:41.976Z,1007.36
2023-04-30T06:47:41.922Z,1007.32
2023-04-30T06:48:41.845Z,1007.33
2023-04-30T06:49:41.864Z,1007.35
2023-04-30T06:50:41.839Z,1007.37
2023-04-30T06:51:41.848Z,1007.35
2023-04-30T06:52:41.814Z,1007.38
2023-04-30T06:53:41.795Z,1007.38
2023-04-30T06:54:41.781Z,1007.43
2023-04-30T06:55:41.802Z,1007.42
2023-04-30T06:56:41.839Z,1007.40
2023-04-30T06:57:41.770Z,1007.39
2023-04-30T06:58:41.715Z,1007.44
2023-04-30T06:59:41.712Z,1007.39
2023-04-30T07:00:41.696Z,1007.40
2023-04-30T07:01:41.765Z,1007.40
2023-04-30T07:02:41.786Z,1007.39
2023-04-30T07:03:41.776Z,1007.38
2023-04-30T07:04:42.117Z,1007.32
2023-04-30T07:05:41.634Z,1007.37
2023-04-30T07:06:41.789Z,1007.34
2023-04-30T07:07:41.620Z,1007.35
2023-04-30T07:08:41.600Z,1007.35
2023-04-30T07:09:41.576Z,1007.35
2023-04-30T07:10:41.572Z,1007.34
2023-04-30T07:11:41.568Z,1007.37
2023-04-30T07:12:41.608Z,1007.35
2023-04-30T07:13:41.521Z,1007.39
2023-04-30T07:14:41.577Z,1007.39
2023-04-30T07:15:41.505Z,1007.37
2023-04-30T07:16:41.484Z,1007.35
2023-04-30T07:17:41.557Z,1007.37
2023-04-30T07:18:41.494Z,1007.38
2023-04-30T07:19:41.441Z,1007.32
2023-04-30T07:20:41.446Z,1007.31
2023-04-30T07:21:41.420Z,1007.33
2023-04-30T07:22:41.430Z,1007.33
2023-04-30T07:23:41.399Z,1007.32
2023-04-30T07:24:41.388Z,1007.32
2023-04-30T07:25:41.354Z,1007.30
2023-04-30T07:26:41.359Z,1007.27
2023-04-30T07:27:41.369Z,1007.27
2023-04-30T07:28:41.331Z,1007.29
2023-04-30T07:29:41.311Z,1007.26
2023-04-30T07:30:41.325Z,1007.28
2023-04-30T07:31:41.356Z,1007.27
2023-04-30T07:32:41.371Z,1007.30
2023-04-30T07:33:41.279Z,1007.29
2023-04-30T07:34:41.242Z,1007.29
2023-04-30T07:35:41.236Z,1007.25
2023-04-30T07:36:41.238Z,1007.28
2023-04-30T07:37:41.633Z,1007.24
2023-04-30T07:38:41.231Z,1007.21
2023-04-30T07:39:41.189Z,1007.19
2023-04-30T07:40:41.170Z,1007.20
2023-04-30T07:41:41.182Z,1007.28
2023-04-30T07:42:41.176Z,1007.20
2023-04-30T07:43:41.195Z,1007.24
2023-04-30T07:44:41.115Z,1007.28
2023-04-30T07:45:41.145Z,1007.24
2023-04-30T07:46:41.175Z,1007.26
2023-04-30T07:47:41.115Z,1007.23
2023-04-30T07:48:41.109Z,1007.25
2023-04-30T07:49:41.065Z,1007.25
2023-04-30T07:50:41.043Z,1007.22
2023-04-30T07:51:41.032Z,1007.20
2023-04-30T07:52:41.020Z,1007.22
2023-04-30T07:53:41.012Z,1007.21
2023-04-30T07:54:40.990Z,1007.23
2023-04-30T07:55:40.986Z,1007.23
2023-04-30T07:56:40.981Z,1007.26
2023-04-30T07:57:40.946Z,1007.26
2023-04-30T07:58:40.954Z,1007.27
2023-04-30T07:59:40.905Z,1007.26
2023-04-30T08:00:40.899Z,1007.19
2023-04-30T08:01:40.898Z,1007.19
2023-04-30T08:02:41.150Z,1007.23
2023-04-30T08:03:41.089Z,1007.29
2023-04-30T08:04:40.874Z,1007.22
2023-04-30T08:05:40.845Z,1007.19
2023-04-30T08:06:40.902Z,1007.22
2023-04-30T08:07:40.822Z,1007.21
2023-04-30T08:08:40.832Z,1007.23
2023-04-30T08:09:40.784Z,1007.19
2023-04-30T08:10:40.776Z,1007.20
2023-04-30T08:11:40.760Z,1007.16
2023-04-30T08:12:40.757Z,1007.21
2023-04-30T08:13:40.759Z,1007.21
2023-04-30T08:14:40.722Z,1007.17
2023-04-30T08:15:40.915Z,1007.19
2023-04-30T08:16:40.748Z,1007.19
2023-04-30T08:17:40.752Z,1007.20
2023-04-30T08:18:40.698Z,1007.25
2023-04-30T08:19:40.663Z,1007.26
2023-04-30T08:20:40.652Z,1007.22
2023-04-30T08:21:40.632Z,1007.23
2023-04-30T08:22:40.628Z,1007.26
2023-04-30T08:23:40.677Z,1007.20
2023-04-30T08:24:40.597Z,1007.23
2023-04-30T08:25:40.570Z,1007.25
2023-04-30T08:26:40.566Z,1007.27
2023-04-30T08:27:40.559Z,1007.20
2023-04-30T08:28:40.551Z,1007.23
2023-04-30T08:29:40.535Z,1007.22
2023-04-30T08:30:40.530Z,1007.25
2023-04-30T08:31:40.544Z,1007.23
2023-04-30T08:32:40.539Z,1007.21
2023-04-30T08:33:40.485Z,1007.24
2023-04-30T08:34:40.478Z,1007.27
2023-04-30T08:35:40.480Z,1007.23
2023-04-30T08:36:40.426Z,1007.26
2023-04-30T08:37:40.418Z,1007.24
2023-04-30T08:38:40.412Z,1007.22
2023-04-30T08:39:40.473Z,1007.20
2023-04-30T08:40:51.140Z,1007.17
2023-04-30T08:41:41.363Z,1007.17
2023-04-30T08:42:40.408Z,1007.12
2023-04-30T08:43:40.430Z,1007.13
2023-04-30T08:44:40.482Z,1007.12
2023-04-30T08:45:40.428Z,1007.13
2023-04-30T08:46:40.446Z,1007.09
2023-04-30T08:47:40.371Z,1007.11
2023-04-30T08:48:40.302Z,1007.12
2023-04-30T08:49:40.407Z,1007.12
2023-04-30T08:50:40.249Z,1007.11
2023-04-30T08:51:40.207Z,1007.15
2023-04-30T08:52:40.224Z,1007.10
2023-04-30T08:53:40.653Z,1007.12
2023-04-30T08:54:40.199Z,1007.11
2023-04-30T08:55:40.187Z,1007.13
2023-04-30T08:56:40.166Z,1007.13
2023-04-30T08:57:40.155Z,1007.12
2023-04-30T08:58:40.161Z,1007.12
2023-04-30T08:59:40.121Z,1007.12
2023-04-30T09:00:40.127Z,1007.17
2023-04-30T09:01:40.134Z,1007.17
2023-04-30T09:02:40.165Z,1007.20
2023-04-30T09:03:40.274Z,1007.19
2023-04-30T09:04:40.052Z,1007.20
2023-04-30T09:05:40.039Z,1007.16
2023-04-30T09:06:40.086Z,1007.15
2023-04-30T09:07:43.645Z,1007.15
2023-04-30T09:08:41.030Z,1007.15
2023-04-30T09:09:39.995Z,1007.12
2023-04-30T09:10:39.982Z,1007.12
2023-04-30T09:11:39.970Z,1007.11
2023-04-30T09:12:39.956Z,1007.11
2023-04-30T09:13:39.942Z,1007.13
2023-04-30T09:14:39.934Z,1007.07
2023-04-30T09:15:39.928Z,1007.06
2023-04-30T09:16:39.895Z,1007.00
2023-04-30T09:17:39.957Z,1007.01
2023-04-30T09:18:40.056Z,1007.04
2023-04-30T09:19:39.874Z,1007.06
2023-04-30T09:20:39.842Z,1007.03
2023-04-30T09:21:40.011Z,1007.03
2023-04-30T09:22:39.817Z,1007.04
2023-04-30T09:23:40.121Z,1007.03
2023-04-30T09:24:39.790Z,1007.03
2023-04-30T09:25:39.790Z,1007.02
2023-04-30T09:26:39.826Z,1007.07
2023-04-30T09:27:39.755Z,1007.00
2023-04-30T09:28:39.953Z,1007.05
2023-04-30T09:29:39.718Z,1007.02
2023-04-30T09:30:39.746Z,1006.98
2023-04-30T09:31:39.759Z,1007.01
2023-04-30T09:32:39.759Z,1006.98
2023-04-30T09:33:39.710Z,1007.02
2023-04-30T09:34:39.640Z,1006.97
2023-04-30T09:35:39.825Z,1006.99
2023-04-30T09:36:39.670Z,1006.95
2023-04-30T09:37:39.912Z,1006.96
2023-04-30T09:38:39.664Z,1006.91
2023-04-30T09:39:39.810Z,1006.92
2023-04-30T09:40:39.603Z,1006.88
2023-04-30T09:41:39.556Z,1006.83
2023-04-30T09:42:39.541Z,1006.84
2023-04-30T09:43:39.538Z,1006.83
2023-04-30T09:44:39.704Z,1006.78
2023-04-30T09:45:39.510Z,1006.83
2023-04-30T09:46:39.799Z,1006.81
2023-04-30T09:47:39.511Z,1006.82
2023-04-30T09:48:39.643Z,1006.82
2023-04-30T09:49:39.450Z,1006.81
2023-04-30T09:50:41.297Z,1006.81
2023-04-30T09:51:39.407Z,1006.77
2023-04-30T09:52:39.426Z,1006.75
2023-04-30T09:53:39.421Z,1006.75
2023-04-30T09:54:39.394Z,1006.70
2023-04-30T09:55:39.354Z,1006.72
2023-04-30T09:56:39.370Z,1006.71
2023-04-30T09:57:39.352Z,1006.64
2023-04-30T09:58:39.393Z,1006.66
2023-04-30T09:59:39.539Z,1006.61
2023-04-30T10:00:39.384Z,1006.56
2023-04-30T10:01:40.959Z,1006.62
2023-04-30T10:02:39.366Z,1006.56
2023-04-30T10:03:39.339Z,1006.62
2023-04-30T10:04:39.253Z,1006.60
2023-04-30T10:05:39.249Z,1006.61
2023-04-30T10:06:39.312Z,1006.63
2023-04-30T10:07:39.205Z,1006.62
2023-04-30T10:08:39.204Z,1006.63
2023-04-30T10:09:39.199Z,1006.62
2023-04-30T10:10:39.179Z,1006.62
2023-04-30T10:11:39.156Z,1006.57
2023-04-30T10:12:39.170Z,1006.53
2023-04-30T10:13:39.144Z,1006.49
2023-04-30T10:14:39.185Z,1006.42
2023-04-30T10:15:39.119Z,1006.49
2023-04-30T10:16:39.145Z,1006.46
2023-04-30T10:17:39.111Z,1006.50
2023-04-30T10:18:39.077Z,1006.53
2023-04-30T10:19:39.057Z,1006.44
2023-04-30T10:20:39.058Z,1006.49
2023-04-30T10:21:39.031Z,1006.53
2023-04-30T10:22:39.025Z,1006.49
2023-04-30T10:23:39.007Z,1006.47
2023-04-30T10:24:39.098Z,1006.48
2023-04-30T10:25:39.086Z,1006.45
2023-04-30T10:26:38.982Z,1006.39
2023-04-30T10:27:38.984Z,1006.42
2023-04-30T10:28:38.957Z,1006.43
2023-04-30T10:29:38.955Z,1006.44
2023-04-30T10:30:38.936Z,1006.48
2023-04-30T10:31:38.930Z,1006.42
2023-04-30T10:32:38.923Z,1006.35
2023-04-30T10:33:38.888Z,1006.33
2023-04-30T10:34:38.875Z,1006.38
2023-04-30T10:35:38.953Z,1006.39
2023-04-30T10:36:38.825Z,1006.35
2023-04-30T10:37:38.816Z,1006.35
2023-04-30T10:38:38.916Z,1006.33
2023-04-30T10:39:38.817Z,1006.28
2023-04-30T10:40:38.783Z,1006.30
2023-04-30T10:41:38.761Z,1006.29
2023-04-30T10:42:38.742Z,1006.31
2023-04-30T10:43:38.741Z,1006.26
2023-04-30T10:44:39.089Z,1006.26
2023-04-30T10:45:38.772Z,1006.20
2023-04-30T10:46:38.755Z,1006.28
2023-04-30T10:47:38.707Z,1006.20
2023-04-30T10:48:38.699Z,1006.19
2023-04-30T10:49:38.813Z,1006.17
2023-04-30T10:50:38.638Z,1006.18
2023-04-30T10:51:38.631Z,1006.19
2023-04-30T10:52:38.612Z,1006.16
2023-04-30T10:53:38.856Z,1006.18
2023-04-30T10:54:38.611Z,1006.13
2023-04-30T10:55:38.585Z,1006.14
2023-04-30T10:56:38.569Z,1006.16
2023-04-30T10:57:38.567Z,1006.14
2023-04-30T10:58:38.781Z,1006.14
2023-04-30T10:59:38.547Z,1006.10
2023-04-30T11:00:39.033Z,1006.12
2023-04-30T11:01:38.600Z,1006.13
2023-04-30T11:02:38.565Z,1006.08
2023-04-30T11:03:38.510Z,1006.03
2023-04-30T11:04:38.509Z,1006.05
2023-04-30T11:05:38.472Z,1006.07
2023-04-30T11:06:38.449Z,1006.02
2023-04-30T11:07:38.578Z,1006.01
2023-04-30T11:08:38.425Z,1006.02
2023-04-30T11:09:38.391Z,1006.02
2023-04-30T11:10:38.400Z,1006.01
2023-04-30T11:11:38.371Z,1005.98
2023-04-30T11:12:38.526Z,1005.96
2023-04-30T11:13:38.341Z,1005.95
2023-04-30T11:14:38.332Z,1005.97
2023-04-30T11:15:38.494Z,1005.98
2023-04-30T11:16:38.500Z,1006.01
2023-04-30T11:17:38.384Z,1005.99
2023-04-30T11:18:38.280Z,1005.99
2023-04-30T11:19:38.263Z,1005.96
2023-04-30T11:20:38.409Z,1005.93
2023-04-30T11:21:38.239Z,1005.91
2023-04-30T11:22:38.221Z,1005.82
2023-04-30T11:23:40.519Z,1005.84
2023-04-30T11:24:38.193Z,1005.86
2023-04-30T11:25:38.203Z,1005.85
2023-04-30T11:26:38.366Z,1005.87
2023-04-30T11:27:38.188Z,1005.82
2023-04-30T11:28:38.203Z,1005.84
2023-04-30T11:29:38.156Z,1005.76
2023-04-30T11:30:38.182Z,1005.82
2023-04-30T11:31:38.205Z,1005.77
2023-04-30T11:32:38.186Z,1005.77
2023-04-30T11:33:38.089Z,1005.77
2023-04-30T11:34:38.070Z,1005.75
2023-04-30T11:35:38.130Z,1005.75
2023-04-30T11:36:38.402Z,1005.73
2023-04-30T11:37:38.033Z,1005.73
2023-04-30T11:38:38.020Z,1005.71
2023-04-30T11:39:38.011Z,1005.69
2023-04-30T11:40:38.518Z,1005.68
2023-04-30T11:41:38.001Z,1005.70
2023-04-30T11:42:37.958Z,1005.73
2023-04-30T11:43:37.946Z,1005.70
2023-04-30T11:44:37.942Z,1005.69
2023-04-30T11:45:37.937Z,1005.67
2023-04-30T11:46:37.991Z,1005.69
2023-04-30T11:47:37.924Z,1005.71
2023-04-30T11:48:37.882Z,1005.73
2023-04-30T11:49:37.879Z,1005.73
2023-04-30T11:50:38.934Z,1005.72
2023-04-30T11:51:37.838Z,1005.72
2023-04-30T11:52:37.838Z,1005.70
2023-04-30T11:53:37.812Z,1005.67
2023-04-30T11:54:37.809Z,1005.65
2023-04-30T11:55:37.809Z,1005.64
2023-04-30T11:56:39.496Z,1005.66
2023-04-30T11:57:37.773Z,1005.63
2023-04-30T11:58:37.755Z,1005.58
2023-04-30T11:59:37.752Z,1005.61
2023-04-30T12:00:37.758Z,1005.59
2023-04-30T12:01:37.840Z,1005.58
2023-04-30T12:02:37.777Z,1005.62
2023-04-30T12:03:37.980Z,1005.61
2023-04-30T12:04:37.781Z,1005.51
2023-04-30T12:05:37.690Z,1005.53